Time;durP1;ratioP1;P1;durP2;ratioP2;P2;SDS_P1;SDS_P2;PMS_P1;PMS_P2;Temp;Humidity;BMP_temperature;BMP_pressure;BME280_temperature;BME280_humidity;BME280_pressure;Samples;Min_cycle;Max_cycle;Signal;HPM_P1;HPM_P2
2022/06/03 00:01:00;;;;;;;4.22;3.83;;;;;;;12.23;60.53;100975.06;10212273;28;20704;-76
2022/06/03 00:06:22;;;;;;;4.10;3.70;;;;;;;12.15;60.42;100970.25;10210766;28;20555;-76
2022/06/03 00:11:58;;;;;;;8.50;3.65;;;;;;;12.01;61.24;100959.69;10207929;28;20082;-76
2022/06/03 00:17:13;;;;;;;3.63;3.33;;;;;;;11.86;61.59;100964.44;10207974;28;20047;-76
2022/06/03 00:22:28;;;;;;;3.95;3.55;;;;;;;11.79;61.82;100959.66;10211837;28;20043;-76
2022/06/03 00:27:56;;;;;;;4.25;3.75;;;;;;;11.72;62.33;100964.66;10212755;28;21216;-76
2022/06/03 00:33:23;;;;;;;4.15;3.83;;;;;;;11.64;62.48;100953.63;10210657;28;20055;-76
2022/06/03 00:38:39;;;;;;;4.05;3.65;;;;;;;11.52;62.85;100949.16;10217815;28;20051;-76
2022/06/03 00:43:58;;;;;;;6.00;3.75;;;;;;;11.53;62.80;100949.06;10210558;28;20111;-76
2022/06/03 00:49:22;;;;;;;4.95;3.97;;;;;;;11.43;63.32;100937.28;10209066;28;21434;-76
2022/06/03 00:54:52;;;;;;;4.32;3.92;;;;;;;11.50;63.24;100946.59;10209663;28;20690;-76
2022/06/03 01:00:07;;;;;;;6.93;4.10;;;;;;;11.43;62.75;100931.88;10208664;28;20055;-76
2022/06/03 01:05:25;;;;;;;3.97;3.55;;;;;;;11.21;63.38;100935.34;10209626;28;20081;-76
2022/06/03 01:10:44;;;;;;;4.78;4.22;;;;;;;11.20;63.57;100942.56;10210179;28;20194;-76
2022/06/03 01:15:55;;;;;;;5.55;4.25;;;;;;;11.14;63.38;100931.41;10209970;28;21501;-76
2022/06/03 01:21:14;;;;;;;5.38;3.90;;;;;;;11.02;63.79;100935.81;10202982;28;20575;-76
2022/06/03 01:26:32;;;;;;;4.25;3.92;;;;;;;10.86;64.18;100935.25;10209794;28;20500;-77
2022/06/03 01:32:14;;;;;;;6.07;4.50;;;;;;;10.78;64.64;100931.31;10219973;28;20889;-77
2022/06/03 01:37:26;;;;;;;8.80;6.53;;;;;;;10.66;64.91;100929.50;10210442;28;20575;-77
2022/06/03 01:43:05;;;;;;;8.32;5.18;;;;;;;10.63;65.10;100928.88;10212172;28;20078;-77
2022/06/03 01:48:29;;;;;;;6.03;4.63;;;;;;;10.65;65.34;100926.94;10198476;28;20051;-76
2022/06/03 01:53:56;;;;;;;5.72;4.30;;;;;;;10.62;65.25;100925.34;10208610;28;20401;-76
2022/06/03 01:59:29;;;;;;;7.30;5.50;;;;;;;10.58;65.47;100932.72;10208695;28;20087;-76
2022/06/03 02:04:54;;;;;;;6.20;5.60;;;;;;;10.68;65.95;100929.41;10212132;28;20130;-77
2022/06/03 02:10:44;;;;;;;8.13;5.05;;;;;;;10.80;65.45;100928.50;10217989;28;20078;-77
2022/06/03 02:16:10;;;;;;;6.78;5.20;;;;;;;10.72;65.24;100915.59;10164563;28;20047;-77
2022/06/03 02:21:45;;;;;;;6.47;5.63;;;;;;;10.50;66.09;100913.63;10226651;28;20051;-77
2022/06/03 02:27:18;;;;;;;6.35;5.05;;;;;;;10.13;67.80;100907.38;10217342;28;20055;-77
2022/06/03 02:32:40;;;;;;;5.13;4.47;;;;;;;9.93;68.25;100914.16;10216856;28;20063;-77
2022/06/03 02:38:15;;;;;;;5.90;5.25;;;;;;;10.14;68.33;100901.03;10215005;28;20090;-77
2022/06/03 02:44:04;;;;;;;5.10;4.70;;;;;;;10.21;67.41;100907.69;10215433;28;20137;-77
2022/06/03 02:49:48;;;;;;;5.95;5.35;;;;;;;10.27;67.20;100906.38;10215634;28;20051;-77
2022/06/03 02:55:27;;;;;;;5.78;5.13;;;;;;;10.10;67.13;100903.06;10221972;28;20074;-77
2022/06/03 03:00:44;;;;;;;6.30;5.03;;;;;;;10.01;67.02;100895.69;10219359;28;20074;-77
2022/06/03 03:06:25;;;;;;;5.15;4.53;;;;;;;9.97;66.73;100909.41;10224233;28;20063;-76
2022/06/03 03:11:57;;;;;;;5.32;4.82;;;;;;;9.83;66.58;100915.72;10221350;28;20047;-77
2022/06/03 03:17:42;;;;;;;6.03;4.70;;;;;;;9.76;66.53;100907.22;10217232;28;20130;-77
2022/06/03 03:23:11;;;;;;;5.18;4.45;;;;;;;9.66;66.56;100907.00;10212623;28;20047;-77
2022/06/03 03:28:32;;;;;;;6.35;4.78;;;;;;;9.61;66.53;100903.78;10213648;28;20730;-77
2022/06/03 03:34:00;;;;;;;5.53;4.45;;;;;;;9.60;66.19;100896.72;10214854;28;20051;-76
2022/06/03 03:39:34;;;;;;;4.80;4.35;;;;;;;9.66;66.29;100893.59;10214850;28;20062;-77
2022/06/03 03:45:12;;;;;;;5.05;4.65;;;;;;;9.67;66.00;100895.31;10179709;28;20078;-76
2022/06/03 03:50:51;;;;;;;11.38;4.75;;;;;;;9.73;65.92;100884.13;10213845;28;20054;-77
2022/06/03 03:56:19;;;;;;;7.82;5.35;;;;;;;9.85;65.75;100893.19;10210912;28;20069;-77
2022/06/03 04:01:52;;;;;;;5.70;5.20;;;;;;;9.83;65.72;100888.88;10210784;28;20051;-77
2022/06/03 04:07:19;;;;;;;6.30;5.35;;;;;;;9.89;66.22;100893.84;10212227;28;20528;-77
2022/06/03 04:12:58;;;;;;;9.80;6.30;;;;;;;9.99;65.99;100894.06;10213231;28;20549;-77
2022/06/03 04:18:48;;;;;;;11.60;6.80;;;;;;;10.08;66.16;100896.09;10212981;28;20108;-77
2022/06/03 04:24:25;;;;;;;12.35;6.18;;;;;;;10.16;66.22;100891.88;10125945;29;20066;-77
2022/06/03 04:30:02;;;;;;;7.65;6.63;;;;;;;10.30;66.18;100885.53;10186530;28;20516;-77
2022/06/03 04:35:54;;;;;;;8.80;6.35;;;;;;;10.43;66.11;100881.97;10212714;28;20054;-77
2022/06/03 04:41:57;;;;;;;8.65;6.38;;;;;;;10.32;66.24;100894.34;10213536;28;20043;-77
2022/06/03 04:47:50;;;;;;;9.27;6.43;;;;;;;10.51;66.12;100885.81;10127843;29;20503;-77
2022/06/03 04:53:32;;;;;;;9.63;6.43;;;;;;;10.71;65.80;100878.97;10193264;28;20594;-77
2022/06/03 04:59:23;;;;;;;7.85;6.00;;;;;;;10.88;65.10;100883.09;10211052;28;21238;-77
2022/06/03 05:04:50;;;;;;;6.35;5.75;;;;;;;10.94;65.45;100874.59;10211239;28;20533;-77
2022/06/03 05:10:40;;;;;;;5.97;5.38;;;;;;;11.11;65.44;100870.63;10212276;28;20051;-77
2022/06/03 05:16:18;;;;;;;6.40;5.75;;;;;;;11.15;65.25;100866.75;10212988;28;20126;-77
2022/06/03 05:21:54;;;;;;;7.57;5.65;;;;;;;11.34;65.58;100871.59;10173936;28;20055;-77
2022/06/03 05:27:28;;;;;;;7.60;5.82;;;;;;;11.49;64.84;100856.97;10210068;28;20062;-77
2022/06/03 05:33:06;;;;;;;5.90;5.28;;;;;;;11.69;64.96;100865.31;10212420;28;20051;-77
2022/06/03 05:38:35;;;;;;;9.85;6.35;;;;;;;11.86;64.88;100866.69;10214221;28;20066;-77
2022/06/03 05:44:06;;;;;;;8.55;6.65;;;;;;;12.05;63.62;100868.78;10221075;28;20536;-77
2022/06/03 05:49:16;;;;;;;6.80;5.53;;;;;;;12.16;63.53;100866.06;10221203;28;20071;-77
2022/06/03 05:54:33;;;;;;;8.80;6.35;;;;;;;12.30;63.68;100860.47;10217480;28;20059;-77
2022/06/03 06:00:02;;;;;;;7.60;6.68;;;;;;;12.51;63.99;100854.31;10221885;28;20528;-77
2022/06/03 06:05:31;;;;;;;7.30;6.55;;;;;;;12.72;63.21;100859.78;10221103;28;20516;-77
2022/06/03 06:10:44;;;;;;;7.45;6.30;;;;;;;12.93;62.77;100857.13;10220836;28;20083;-77
2022/06/03 06:16:00;;;;;;;;;;;;;;;13.24;62.40;100850.84;10221129;28;20096;-77
2022/06/03 06:21:21;;;;;;;6.60;4.97;;;;;;;13.67;61.57;100840.97;10216843;28;19926;-77
2022/06/03 06:27:03;;;;;;;11.50;5.30;;;;;;;14.05;60.49;100843.00;10213466;28;20109;-77
2022/06/03 06:32:35;;;;;;;7.53;5.23;;;;;;;14.28;57.94;100843.63;10217573;28;20083;-77
2022/06/03 06:38:01;;;;;;;5.05;4.65;;;;;;;14.67;58.21;100835.63;10219896;28;21161;-78
2022/06/03 06:43:11;;;;;;;6.88;5.22;;;;;;;14.96;56.31;100830.28;10220072;28;20177;-77
2022/06/03 06:48:38;;;;;;;5.75;4.00;;;;;;;15.15;54.97;100842.09;10220522;28;20051;-77
2022/06/03 06:53:48;;;;;;;4.55;4.15;;;;;;;15.53;55.52;100835.81;10216224;28;20418;-77
2022/06/03 06:58:56;;;;;;;4.28;3.88;;;;;;;15.33;53.10;100826.84;10234185;28;20051;-78
2022/06/03 07:04:06;;;;;;;4.15;3.40;;;;;;;16.01;53.70;100832.09;10254335;29;20043;-78
2022/06/03 07:09:30;;;;;;;3.40;2.97;;;;;;;16.54;52.46;100831.44;10260252;29;20046;-78
2022/06/03 07:14:40;;;;;;;3.80;3.20;;;;;;;17.57;50.85;100818.28;10268251;29;20057;-78
2022/06/03 07:19:53;;;;;;;3.78;3.30;;;;;;;19.02;47.31;100828.22;10256340;29;20138;-78
2022/06/03 07:25:02;;;;;;;2.63;2.53;;;;;;;21.46;41.90;100808.31;10256043;29;20456;-78
2022/06/03 07:30:11;;;;;;;2.88;2.55;;;;;;;24.19;35.63;100803.00;10254930;29;20051;-78
2022/06/03 07:35:22;;;;;;;3.55;2.38;;;;;;;25.92;33.59;100792.25;10256360;29;20050;-78
2022/06/03 07:40:30;;;;;;;3.58;2.85;;;;;;;27.51;31.64;100782.22;10256721;29;20059;-77
2022/06/03 07:45:40;;;;;;;4.30;2.58;;;;;;;27.54;30.29;100782.63;10254089;29;20520;-76
2022/06/03 07:50:55;;;;;;;2.50;2.30;;;;;;;25.37;33.20;100776.88;10252739;29;20078;-76
2022/06/03 07:55:59;;;;;;;3.45;3.13;;;;;;;24.91;33.60;100776.84;10252503;28;20051;-76
2022/06/03 08:01:02;;;;;;;4.15;2.47;;;;;;;22.75;35.49;100782.28;10251778;28;20051;-77
2022/06/03 08:06:09;;;;;;;3.45;2.65;;;;;;;21.39;37.21;100789.09;10252026;28;20119;-76
2022/06/03 08:11:23;;;;;;;3.47;2.15;;;;;;;20.78;39.98;100788.19;10247768;29;20110;-76
2022/06/03 08:16:31;;;;;;;2.75;2.17;;;;;;;21.27;38.93;100793.28;10250232;28;20062;-77
2022/06/03 08:21:41;;;;;;;4.07;2.50;;;;;;;21.17;37.60;100787.22;10251504;29;20066;-76
2022/06/03 08:26:49;;;;;;;1.98;1.88;;;;;;;21.11;38.45;100783.34;10247886;29;20049;-77
2022/06/03 08:31:54;;;;;;;3.65;2.38;;;;;;;21.19;37.86;100782.44;10249658;28;20054;-76
2022/06/03 08:37:00;;;;;;;3.83;1.83;;;;;;;21.71;38.35;100775.25;10249188;28;20464;-76
2022/06/03 08:42:14;;;;;;;1.92;1.83;;;;;;;21.80;37.68;100769.53;10248347;29;20530;-77
2022/06/03 08:47:21;;;;;;;2.17;1.95;;;;;;;21.78;37.47;100762.56;10250236;28;20046;-76
2022/06/03 08:52:38;;;;;;;2.38;1.80;;;;;;;21.92;36.83;100755.38;10250357;29;20047;-77
2022/06/03 08:57:45;;;;;;;2.38;1.98;;;;;;;22.19;36.83;100760.16;10251630;28;20090;-76
2022/06/03 09:02:56;;;;;;;1.80;1.70;;;;;;;22.46;36.19;100752.28;10264193;28;20070;-76
2022/06/03 09:08:09;;;;;;;8.63;1.80;;;;;;;23.07;36.78;100758.16;10297897;28;20059;-77
2022/06/03 09:13:21;;;;;;;1.90;1.75;;;;;;;22.84;37.78;100752.03;10278088;28;20126;-78
2022/06/03 09:18:28;;;;;;;1.90;1.80;;;;;;;23.32;37.15;100749.53;10268536;28;20043;-76
2022/06/03 09:23:37;;;;;;;1.70;1.60;;;;;;;23.43;37.06;100757.19;10263482;29;20562;-78
2022/06/03 09:28:40;;;;;;;1.70;1.60;;;;;;;23.86;36.37;100746.06;10264668;28;20660;-77
2022/06/03 09:33:45;;;;;;;1.77;1.67;;;;;;;24.10;35.75;100731.81;10272985;28;20142;-77
2022/06/03 09:39:00;;;;;;;1.65;1.55;;;;;;;24.31;35.06;100721.78;10262518;29;20051;-78
2022/06/03 09:44:04;;;;;;;2.37;2.17;;;;;;;24.23;35.34;100731.03;10263700;28;20046;-77
2022/06/03 09:49:09;;;;;;;2.30;1.80;;;;;;;24.68;34.75;100727.78;10262839;28;20049;-77
2022/06/03 09:54:24;;;;;;;2.28;1.67;;;;;;;25.07;34.33;100724.25;10262996;28;20043;-77
2022/06/03 09:59:29;;;;;;;3.33;1.50;;;;;;;24.42;34.88;100717.63;10262643;28;20043;-77
2022/06/03 10:04:32;;;;;;;1.80;1.70;;;;;;;24.29;35.76;100719.22;10290279;28;20051;-76
2022/06/03 10:20:20;;;;;;;1.73;1.52;;;;;;;25.54;33.83;100707.69;10259904;28;20302;-78
2022/06/03 10:25:27;;;;;;;3.65;1.70;;;;;;;25.76;33.41;100691.78;10281939;28;20075;-77
2022/06/03 10:30:32;;;;;;;4.30;2.15;;;;;;;25.08;33.76;100719.59;10256295;29;20050;-77
2022/06/03 10:35:39;;;;;;;2.05;1.77;;;;;;;25.30;33.41;100700.97;10260241;28;20158;-77
2022/06/03 10:40:48;;;;;;;3.50;1.98;;;;;;;25.44;33.68;100697.13;10254596;29;20472;-76
2022/06/03 10:45:51;;;;;;;2.55;1.35;;;;;;;25.30;33.35;100690.81;10260396;29;20102;-78
2022/06/03 10:51:12;;;;;;;1.73;1.63;;;;;;;24.93;33.33;100681.31;10260369;28;20083;-77
2022/06/03 11:01:43;;;;;;;2.58;1.60;;;;;;;25.81;32.82;100675.47;10254867;29;20053;-75
2022/06/03 11:06:46;;;;;;;1.60;1.50;;;;;;;26.52;32.17;100674.44;10262208;28;20505;-77
2022/06/03 11:11:53;;;;;;;3.03;1.60;;;;;;;26.49;31.35;100653.72;10255501;28;20548;-75
2022/06/03 11:17:04;;;;;;;2.38;1.77;;;;;;;26.40;31.88;100649.53;10254909;28;20093;-76
2022/06/03 11:22:17;;;;;;;2.30;1.80;;;;;;;26.91;30.98;100644.91;10253208;29;20075;-76
2022/06/03 11:27:29;;;;;;;2.33;1.52;;;;;;;27.44;30.11;100633.34;10255362;29;20133;-77
2022/06/03 11:32:35;;;;;;;4.37;1.37;;;;;;;27.17;31.03;100622.56;10261148;28;20051;-78
2022/06/03 11:37:41;;;;;;;1.58;1.48;;;;;;;27.51;30.64;100634.13;10255294;28;20152;-77
2022/06/03 11:42:51;;;;;;;3.97;1.55;;;;;;;27.92;29.52;100632.53;10253650;28;20358;-77
2022/06/03 11:47:59;;;;;;;2.45;1.50;;;;;;;28.11;30.17;100619.50;10250224;29;20114;-76
2022/06/03 11:53:03;;;;;;;4.57;1.90;;;;;;;27.13;29.96;100615.00;10253362;29;20492;-76
2022/06/03 11:58:13;;;;;;;5.03;1.60;;;;;;;27.43;30.96;100615.13;10250578;29;20506;-76
2022/06/03 12:03:33;;;;;;;2.45;1.70;;;;;;;28.48;28.68;100613.84;10252902;29;20055;-76
2022/06/03 12:08:47;;;;;;;4.72;1.70;;;;;;;27.62;29.97;100607.66;10252491;29;20055;-76
2022/06/03 12:14:12;;;;;;;4.43;1.95;;;;;;;27.14;30.10;100608.41;10249653;29;20132;-76
2022/06/03 12:19:35;;;;;;;3.17;2.45;;;;;;;27.12;31.21;100605.88;10252354;29;20086;-76
2022/06/03 12:24:46;;;;;;;2.10;1.90;;;;;;;27.91;30.73;100599.63;10251992;29;20040;-76
2022/06/03 12:30:09;;;;;;;2.40;2.20;;;;;;;29.00;29.60;100586.38;10252294;29;20098;-77
2022/06/03 12:35:30;;;;;;;;;;;;;;;29.36;29.82;100582.50;10252837;28;20051;-76
2022/06/03 12:40:36;;;;;;;1.80;1.70;;;;;;;29.22;29.20;100577.50;10260040;29;19938;-76
2022/06/03 12:45:41;;;;;;;3.13;2.10;;;;;;;27.92;30.57;100569.03;10252283;28;20051;-77
2022/06/03 12:51:20;;;;;;;2.85;2.20;;;;;;;27.33;30.20;100573.41;10252823;28;20134;-77
2022/06/03 12:56:35;;;;;;;2.60;1.90;;;;;;;27.63;30.44;100573.47;10261397;29;20059;-76
2022/06/03 13:01:49;;;;;;;9.73;2.17;;;;;;;28.80;29.67;100558.25;10233301;23;20519;-78
2022/06/03 13:07:29;;;;;;;2.55;1.70;;;;;;;28.85;29.42;100567.53;10221231;29;20052;-78
2022/06/03 13:12:48;;;;;;;4.70;1.77;;;;;;;26.93;31.20;100546.28;10135060;29;20067;-78
2022/06/03 13:18:10;;;;;;;5.32;1.67;;;;;;;26.90;31.90;100553.09;10189106;29;20044;-78
2022/06/03 13:23:33;;;;;;;2.13;2.03;;;;;;;28.76;29.10;100551.56;10172665;29;20067;-78
2022/06/03 13:28:40;;;;;;;2.47;1.40;;;;;;;29.23;28.95;100532.97;10172461;29;20257;-78
2022/06/03 13:34:19;;;;;;;3.25;1.80;;;;;;;29.63;28.59;100534.91;10180577;29;20059;-78
2022/06/03 13:39:59;;;;;;;3.03;1.90;;;;;;;30.11;28.09;100524.41;10177302;29;20052;-78
2022/06/03 13:45:21;;;;;;;1.58;1.48;;;;;;;29.77;27.83;100519.69;10176660;29;20052;-78
2022/06/03 13:50:35;;;;;;;2.38;1.50;;;;;;;30.18;27.66;100523.19;10175710;29;20046;-77
2022/06/03 13:55:52;;;;;;;1.60;1.50;;;;;;;29.02;28.27;100522.53;10207066;29;20075;-76
2022/06/03 14:01:02;;;;;;;1.40;1.40;;;;;;;27.88;30.08;100526.41;10184438;29;20472;-78
2022/06/03 14:06:18;;;;;;;2.33;1.63;;;;;;;28.57;29.99;100525.97;10183491;29;20080;-78
2022/06/03 14:11:28;;;;;;;1.60;1.40;;;;;;;28.21;29.45;100533.34;10192835;29;20056;-77
2022/06/03 14:16:35;;;;;;;6.03;1.80;;;;;;;27.92;29.99;100535.91;10183711;29;20059;-78
2022/06/03 14:21:45;;;;;;;1.70;1.60;;;;;;;27.98;31.54;100545.22;10183360;29;20087;-78
2022/06/03 14:26:53;;;;;;;1.67;1.58;;;;;;;28.89;29.87;100538.31;10183545;29;20391;-78
2022/06/03 14:31:58;;;;;;;1.83;1.67;;;;;;;29.59;29.26;100531.78;10190850;29;20159;-77
2022/06/03 14:37:07;;;;;;;2.03;1.60;;;;;;;29.43;28.76;100538.09;10181493;29;20048;-77
2022/06/03 14:42:16;;;;;;;4.00;1.60;;;;;;;28.90;29.53;100542.75;10184725;29;20414;-78
2022/06/03 14:47:21;;;;;;;1.90;1.80;;;;;;;29.67;29.07;100533.31;10168169;29;20050;-78
2022/06/03 14:52:33;;;;;;;3.38;1.77;;;;;;;29.66;28.46;100522.50;10178902;29;20095;-77
2022/06/03 14:57:40;;;;;;;1.88;1.70;;;;;;;28.34;30.32;100526.78;10179010;29;20055;-76
2022/06/03 15:02:49;;;;;;;1.80;1.70;;;;;;;28.20;30.35;100535.28;10176936;29;20131;-77
2022/06/03 15:08:00;;;;;;;2.47;1.90;;;;;;;28.70;29.61;100536.78;10178967;29;20048;-77
2022/06/03 15:13:03;;;;;;;2.35;1.58;;;;;;;29.12;28.73;100531.09;10177792;29;20049;-77
2022/06/03 15:18:14;;;;;;;2.75;1.70;;;;;;;28.21;30.36;100534.19;10178841;29;20044;-78
2022/06/03 15:23:18;;;;;;;4.53;2.35;;;;;;;27.73;30.83;100523.22;10176486;29;20122;-78
2022/06/03 15:28:26;;;;;;;3.17;1.88;;;;;;;28.22;30.32;100513.81;10187171;29;20048;-78
2022/06/03 15:33:35;;;;;;;2.05;1.95;;;;;;;27.72;31.00;100521.56;10179302;29;20608;-78
2022/06/03 15:38:41;;;;;;;2.85;1.77;;;;;;;27.08;31.80;100505.41;10176728;29;20146;-77
2022/06/03 15:43:47;;;;;;;4.43;2.08;;;;;;;27.07;31.86;100498.22;10178175;29;20178;-77
2022/06/03 15:49:02;;;;;;;4.85;1.83;;;;;;;27.03;31.60;100496.16;10178534;29;20044;-79
2022/06/03 15:54:06;;;;;;;2.50;2.05;;;;;;;26.80;32.28;100500.41;10176228;29;20130;-78
2022/06/03 15:59:19;;;;;;;4.15;2.17;;;;;;;26.62;31.94;100494.88;10178241;29;20083;-79
2022/06/03 16:04:41;;;;;;;2.85;1.90;;;;;;;26.19;32.88;100492.94;10181534;29;20056;-78
2022/06/03 16:09:50;;;;;;;;;;;;;;;26.36;32.83;100498.78;10219411;29;20052;-80
2022/06/03 16:15:15;;;;;;;3.83;2.03;;;;;;;26.57;32.75;100490.06;10176335;29;20357;-79
2022/06/03 16:20:20;;;;;;;2.65;1.88;;;;;;;26.72;32.11;100476.75;10178302;29;20072;-79
2022/06/03 16:25:27;;;;;;;2.92;1.90;;;;;;;27.08;32.00;100486.13;10182643;29;20059;-78
2022/06/03 16:30:57;;;;;;;1.58;1.48;;;;;;;27.81;31.24;100484.25;10178073;29;20036;-78
2022/06/03 16:36:08;;;;;;;2.83;1.75;;;;;;;27.75;31.89;100475.00;10170330;29;20055;-80
2022/06/03 16:41:25;;;;;;;2.10;2.00;;;;;;;27.48;31.91;100474.59;10213960;29;20050;-79
2022/06/03 16:46:37;;;;;;;2.35;2.13;;;;;;;26.65;32.77;100467.72;10196528;29;20048;-78
2022/06/03 16:51:47;;;;;;;3.45;2.13;;;;;;;26.15;33.68;100473.28;10184633;29;20040;-79
2022/06/03 16:57:00;;;;;;;2.50;1.98;;;;;;;25.61;34.00;100480.22;10186098;29;20044;-80
2022/06/03 17:02:04;;;;;;;2.30;2.10;;;;;;;25.14;34.74;100480.47;10185712;29;20048;-79
2022/06/03 17:07:08;;;;;;;4.43;2.08;;;;;;;24.41;35.86;100469.69;10187531;29;20036;-80
2022/06/03 17:12:16;;;;;;;3.92;2.38;;;;;;;24.28;36.39;100467.78;10184975;29;20469;-80
2022/06/03 17:17:22;;;;;;;2.65;2.08;;;;;;;24.30;36.04;100473.06;10184563;29;20044;-80
2022/06/03 17:22:40;;;;;;;4.75;1.90;;;;;;;24.25;36.51;100470.13;10183767;29;20132;-80
2022/06/03 17:27:58;;;;;;;2.20;2.00;;;;;;;24.21;37.90;100477.06;10201930;29;20072;-79
2022/06/03 17:33:13;;;;;;;2.38;2.17;;;;;;;23.95;37.49;100481.50;10203642;29;20044;-80
2022/06/03 17:38:31;;;;;;;2.20;2.00;;;;;;;23.91;37.02;100474.75;10208334;29;20116;-78
2022/06/03 17:43:42;;;;;;;2.15;2.05;;;;;;;23.65;37.40;100473.63;10207670;29;20048;-79
2022/06/03 17:48:53;;;;;;;2.20;1.93;;;;;;;23.56;38.00;100477.63;10193162;29;20044;-79
2022/06/03 17:59:38;;;;;;;2.58;2.30;;;;;;;23.15;39.42;100483.22;10187554;29;20051;-78
2022/06/03 18:04:48;;;;;;;3.42;2.53;;;;;;;22.99;39.27;100477.00;10188410;29;20056;-79
2022/06/03 18:09:55;;;;;;;3.65;2.35;;;;;;;22.90;39.42;100483.69;10185000;29;20107;-78
2022/06/03 18:15:10;;;;;;;2.45;2.25;;;;;;;22.70;39.43;100483.56;10184869;29;20052;-79
2022/06/03 18:20:16;;;;;;;5.22;2.40;;;;;;;22.45;39.50;100485.09;10187277;29;20050;-79
2022/06/03 18:25:51;;;;;;;3.35;2.67;;;;;;;22.40;40.06;100488.41;10208289;29;20064;-79
2022/06/03 18:31:11;;;;;;;2.38;2.28;;;;;;;22.28;40.75;100487.28;10197449;29;20044;-79
2022/06/03 18:36:34;;;;;;;3.20;2.25;;;;;;;22.18;41.07;100492.25;10159228;29;20484;-79
2022/06/03 18:41:50;;;;;;;2.40;2.20;;;;;;;22.05;41.61;100485.63;10184995;29;20501;-80
2022/06/03 18:47:07;;;;;;;2.67;2.42;;;;;;;21.86;42.22;100489.03;10183559;29;20072;-80
2022/06/03 18:52:21;;;;;;;2.75;2.55;;;;;;;21.81;41.53;100488.78;10184408;29;20598;-79
2022/06/03 18:57:39;;;;;;;2.67;2.47;;;;;;;21.70;42.61;100492.84;10180333;29;20056;-77
2022/06/03 19:02:52;;;;;;;2.30;2.20;;;;;;;21.61;42.80;100499.44;10217213;23;20055;-75
2022/06/03 19:08:13;;;;;;;3.10;2.80;;;;;;;21.41;43.47;100511.00;10194600;29;20142;-76
2022/06/03 19:13:31;;;;;;;2.88;2.53;;;;;;;21.24;44.21;100515.03;10174160;29;20044;-76
2022/06/03 19:19:04;;;;;;;2.88;2.67;;;;;;;21.22;44.29;100522.56;10174130;29;20516;-76
2022/06/03 19:24:24;;;;;;;;;;;;;;;21.09;44.23;100523.25;10174792;29;20456;-76
2022/06/03 19:29:30;;;;;;;12.95;2.95;;;;;;;21.04;44.57;100533.06;10172735;29;20292;-76
2022/06/03 19:34:44;;;;;;;3.55;2.78;;;;;;;20.90;44.49;100532.84;10172274;29;20115;-76
2022/06/03 19:40:08;;;;;;;2.88;2.60;;;;;;;20.82;44.75;100541.13;10172999;29;20127;-75
2022/06/03 19:45:38;;;;;;;2.80;2.60;;;;;;;20.70;45.26;100548.06;10171224;29;20070;-76
2022/06/03 19:51:04;;;;;;;3.45;2.92;;;;;;;20.62;45.21;100545.41;10169757;29;20494;-76
2022/06/03 19:56:14;;;;;;;3.22;2.92;;;;;;;20.53;45.50;100556.41;10172867;29;20054;-75
2022/06/03 20:01:23;;;;;;;3.15;2.72;;;;;;;20.37;46.01;100555.72;10172641;29;20513;-76
2022/06/03 20:06:30;;;;;;;3.40;3.10;;;;;;;20.27;46.41;100569.59;10175083;29;20190;-76
2022/06/03 20:17:05;;;;;;;4.78;3.05;;;;;;;20.16;46.50;100575.47;10171321;29;20050;-75
2022/06/03 20:22:16;;;;;;;;;;;;;;;20.04;46.33;100578.63;10170527;29;20044;-75
2022/06/03 20:27:26;;;;;;;3.22;2.92;;;;;;;19.90;46.69;100590.31;10169914;29;19934;-76
2022/06/03 20:32:47;;;;;;;5.22;3.90;;;;;;;19.80;46.73;100593.28;10172043;29;20055;-75
2022/06/03 20:38:03;;;;;;;4.32;2.88;;;;;;;19.63;46.53;100597.97;10170140;29;20462;-76
2022/06/03 20:43:19;;;;;;;3.78;2.95;;;;;;;19.57;46.31;100608.72;10171640;29;20044;-76
2022/06/03 20:48:40;;;;;;;5.50;3.00;;;;;;;19.41;46.28;100613.19;10170330;29;20052;-76
2022/06/03 20:53:51;;;;;;;3.42;2.60;;;;;;;19.36;46.26;100615.63;10169563;29;20079;-75
2022/06/03 20:59:03;;;;;;;2.87;2.63;;;;;;;19.37;45.96;100624.63;10170236;29;20060;-75
2022/06/03 21:14:54;;;;;;;3.73;3.03;;;;;;;18.98;46.17;100626.28;10170623;29;20051;-76
2022/06/03 21:19:57;;;;;;;2.65;2.45;;;;;;;19.03;46.43;100623.00;10170147;29;20044;-75
2022/06/03 21:25:03;;;;;;;2.92;2.35;;;;;;;18.93;45.84;100627.81;10170530;29;20036;-75
2022/06/03 21:30:08;;;;;;;3.63;2.28;;;;;;;18.86;45.75;100629.53;10169770;29;20037;-76
2022/06/03 21:35:38;;;;;;;2.53;2.20;;;;;;;18.83;45.60;100636.16;10169995;29;20146;-76
2022/06/03 21:40:47;;;;;;;3.58;2.30;;;;;;;18.73;45.09;100641.78;10168982;29;20390;-76
2022/06/03 21:46:04;;;;;;;4.38;2.75;;;;;;;18.73;44.61;100646.34;10168310;29;20112;-76
2022/06/03 21:51:22;;;;;;;2.50;1.70;;;;;;;18.61;45.32;100650.44;10168427;29;20044;-76
2022/06/03 21:56:37;;;;;;;4.38;2.00;;;;;;;18.57;45.15;100660.81;10167369;29;20100;-76
2022/06/03 22:01:40;;;;;;;2.08;1.98;;;;;;;18.53;44.90;100664.88;10169030;29;20036;-76
2022/06/03 22:06:44;;;;;;;4.13;2.00;;;;;;;18.45;45.05;100660.28;10165190;29;20100;-76
2022/06/03 22:17:11;;;;;;;3.45;1.80;;;;;;;18.25;45.06;100667.09;10150721;29;20060;-76
2022/06/03 22:22:14;;;;;;;3.90;1.60;;;;;;;18.28;45.21;100667.59;10172165;29;20056;-76
2022/06/03 22:27:26;;;;;;;3.50;1.70;;;;;;;18.31;45.93;100669.97;10173235;29;20055;-76
2022/06/03 22:32:38;;;;;;;2.60;2.10;;;;;;;18.28;45.50;100677.63;10174532;29;20044;-76
2022/06/03 22:43:17;;;;;;;1.67;1.58;;;;;;;18.25;45.06;100676.09;10173582;29;20060;-76
2022/06/03 22:48:20;;;;;;;;;;;;;;;18.12;45.74;100670.28;10172722;29;20051;-76
2022/06/03 22:53:22;;;;;;;4.45;2.15;;;;;;;17.93;45.66;100677.66;10173667;29;20085;-76
2022/06/03 22:58:27;;;;;;;3.88;1.80;;;;;;;17.83;46.70;100670.69;10186271;29;20052;-76
2022/06/03 23:03:30;;;;;;;3.97;1.70;;;;;;;17.71;47.10;100672.84;10175392;29;20056;-76
2022/06/03 23:08:33;;;;;;;1.80;1.60;;;;;;;17.60;46.88;100660.41;10173510;29;20051;-76
2022/06/03 23:13:39;;;;;;;3.45;1.52;;;;;;;17.56;47.00;100659.03;10173891;29;20458;-76
2022/06/03 23:18:43;;;;;;;3.45;1.88;;;;;;;17.42;47.06;100657.78;10173351;29;20048;-76
2022/06/03 23:23:48;;;;;;;3.08;2.10;;;;;;;17.22;47.44;100659.03;10172911;29;20044;-76
2022/06/03 23:28:53;;;;;;;2.35;2.13;;;;;;;17.16;48.18;100660.53;10171983;29;20128;-76
2022/06/03 23:33:58;;;;;;;5.22;2.15;;;;;;;17.10;48.17;100657.59;10169918;29;20047;-76
2022/06/03 23:39:01;;;;;;;2.35;2.00;;;;;;;17.06;48.84;100658.91;10171727;29;20052;-75
2022/06/03 23:49:27;;;;;;;;;;;;;;;16.86;49.38;100677.25;10172293;29;20442;-76
2022/06/03 23:54:31;;;;;;;2.10;1.90;;;;;;;16.72;49.90;100675.97;10171836;29;19927;-76
2022/06/03 23:59:35;;;;;;;6.65;2.17;;;;;;;16.54;50.12;100674.16;10171003;29;20052;-76
